createdAt,value
2024-02-28T00:01:30.547Z,22.00
2024-02-28T00:03:59.109Z,21.33
2024-02-28T00:06:27.866Z,20.27
2024-02-28T00:08:55.843Z,16.80
2024-02-28T00:11:23.470Z,22.88
2024-02-28T00:13:50.934Z,19.92
2024-02-28T00:16:18.337Z,18.02
2024-02-28T00:18:45.854Z,20.65
2024-02-28T00:21:13.379Z,20.92
2024-02-28T00:23:42.142Z,17.50
2024-02-28T00:26:09.754Z,20.15
2024-02-28T00:28:37.671Z,17.35
2024-02-28T00:31:05.262Z,21.55
2024-02-28T00:33:32.703Z,17.33
2024-02-28T00:36:00.145Z,19.52
2024-02-28T00:38:28.323Z,21.20
2024-02-28T00:40:57.082Z,21.02
2024-02-28T00:43:24.498Z,21.00
2024-02-28T00:45:51.994Z,17.20
2024-02-28T00:48:19.471Z,16.42
2024-02-28T00:50:47.165Z,22.42
2024-02-28T00:53:14.696Z,23.10
2024-02-28T00:55:42.107Z,19.13
2024-02-28T00:58:10.905Z,17.00
2024-02-28T01:00:38.489Z,17.88
2024-02-28T01:03:06.349Z,18.42
2024-02-28T01:05:34.182Z,16.15
2024-02-28T01:08:01.595Z,18.77
2024-02-28T01:10:29.113Z,15.00
2024-02-28T01:12:56.604Z,18.35
2024-02-28T01:15:25.705Z,15.05
2024-02-28T01:17:53.198Z,14.00
2024-02-28T01:20:20.640Z,14.88
2024-02-28T01:22:48.661Z,18.52
2024-02-28T01:25:16.212Z,17.20
2024-02-28T01:27:44.098Z,17.05
2024-02-28T01:30:12.591Z,12.15
2024-02-28T01:32:41.361Z,17.80
2024-02-28T01:35:10.832Z,15.15
2024-02-28T01:37:38.239Z,14.63
2024-02-28T01:40:06.853Z,17.75
2024-02-28T01:42:34.395Z,16.88
2024-02-28T01:45:01.850Z,14.52
2024-02-28T01:47:29.636Z,15.68
2024-02-28T01:49:58.623Z,17.05
2024-02-28T01:52:26.076Z,16.42
2024-02-28T01:54:53.876Z,15.00
2024-02-28T01:57:21.515Z,19.33
2024-02-28T01:59:49.422Z,17.35
2024-02-28T02:02:16.846Z,14.85
2024-02-28T02:04:44.265Z,19.10
2024-02-28T02:07:13.042Z,14.25
2024-02-28T02:09:40.743Z,15.30
2024-02-28T02:12:09.043Z,16.67
2024-02-28T02:14:36.449Z,16.60
2024-02-28T02:17:03.840Z,16.15
2024-02-28T02:19:31.502Z,19.17
2024-02-28T02:22:00.384Z,21.73
2024-02-28T02:24:29.293Z,19.05
2024-02-28T02:26:58.793Z,14.50
2024-02-28T02:29:26.244Z,14.77
2024-02-28T02:31:53.667Z,17.13
2024-02-28T02:34:21.114Z,14.07
2024-02-28T02:36:48.586Z,18.73
2024-02-28T02:39:16.223Z,12.70
2024-02-28T02:41:45.040Z,15.55
2024-02-28T02:44:12.474Z,20.42
2024-02-28T02:46:40.385Z,12.88
2024-02-28T02:49:07.804Z,19.23
2024-02-28T02:51:35.251Z,15.05
2024-02-28T02:54:02.734Z,21.38
2024-02-28T02:56:30.161Z,16.55
2024-02-28T02:58:58.928Z,18.20
2024-02-28T03:01:26.395Z,16.08
2024-02-28T03:03:54.017Z,21.83
2024-02-28T03:06:21.999Z,17.38
2024-02-28T03:08:49.416Z,20.00
2024-02-28T03:11:16.893Z,21.83
2024-02-28T03:13:44.352Z,17.73
2024-02-28T03:16:13.364Z,17.10
2024-02-28T03:18:40.804Z,17.88
2024-02-28T03:21:08.279Z,14.55
2024-02-28T03:23:37.154Z,20.75
2024-02-28T03:26:05.305Z,14.15
2024-02-28T03:28:32.702Z,16.52
2024-02-28T03:31:00.132Z,12.63
2024-02-28T03:33:29.148Z,17.33
2024-02-28T03:35:56.620Z,14.20
2024-02-28T03:38:24.026Z,14.80
2024-02-28T03:40:51.438Z,14.82
2024-02-28T03:43:18.849Z,15.45
2024-02-28T03:45:46.392Z,17.60
2024-02-28T03:48:14.033Z,17.33
2024-02-28T03:50:42.997Z,16.05
2024-02-28T03:53:10.455Z,16.35
2024-02-28T03:55:39.132Z,16.38
2024-02-28T03:58:09.668Z,14.70
2024-02-28T04:00:37.387Z,17.05
2024-02-28T04:03:04.466Z,17.75
2024-02-28T04:05:31.930Z,15.68
2024-02-28T04:08:00.670Z,13.85
2024-02-28T04:10:28.102Z,15.63
2024-02-28T04:12:55.782Z,16.90
2024-02-28T04:15:23.337Z,15.73
2024-02-28T04:17:50.829Z,16.50
2024-02-28T04:20:18.327Z,14.68
2024-02-28T04:22:45.753Z,15.77
2024-02-28T04:25:14.576Z,16.00
2024-02-28T04:27:42.038Z,16.55
2024-02-28T04:30:09.926Z,14.43
2024-02-28T04:32:39.374Z,12.98
2024-02-28T04:35:07.695Z,13.40
2024-02-28T04:37:35.815Z,14.82
2024-02-28T04:40:03.350Z,14.55
2024-02-28T04:42:32.130Z,14.25
2024-02-28T04:44:59.773Z,19.08
2024-02-28T04:47:33.610Z,13.27
2024-02-28T04:50:07.955Z,12.57
2024-02-28T04:52:35.635Z,15.07
2024-02-28T04:55:06.332Z,15.75
2024-02-28T04:57:35.146Z,13.75
2024-02-28T05:00:04.777Z,18.05
2024-02-28T05:02:32.187Z,16.15
2024-02-28T05:04:59.927Z,15.38
2024-02-28T05:07:27.367Z,17.40
2024-02-28T05:09:54.893Z,18.08
2024-02-28T05:12:22.378Z,15.70
2024-02-28T05:14:53.984Z,17.58
2024-02-28T05:17:22.849Z,16.38
2024-02-28T05:19:50.261Z,14.88
2024-02-28T05:22:17.747Z,17.13
2024-02-28T05:24:47.933Z,22.80
2024-02-28T05:27:15.389Z,10.70
2024-02-28T05:29:43.916Z,10.93
2024-02-28T05:32:12.806Z,14.88
2024-02-28T05:34:40.321Z,15.05
2024-02-28T05:37:07.794Z,17.63
2024-02-28T05:39:35.627Z,12.55
2024-02-28T05:42:03.110Z,14.93
2024-02-28T05:44:31.060Z,17.02
2024-02-28T05:46:58.528Z,13.07
2024-02-28T05:49:27.256Z,16.45
2024-02-28T05:51:55.569Z,10.63
2024-02-28T05:54:23.113Z,11.63
2024-02-28T05:56:50.549Z,18.48
2024-02-28T05:59:18.023Z,14.85
2024-02-28T06:01:46.656Z,11.55
2024-02-28T06:04:14.208Z,11.63
2024-02-28T06:06:43.237Z,17.30
2024-02-28T06:09:11.553Z,13.63
2024-02-28T06:11:38.973Z,18.13
2024-02-28T06:14:06.442Z,13.07
2024-02-28T06:16:33.883Z,16.17
2024-02-28T06:19:03.985Z,17.75
2024-02-28T06:21:33.337Z,16.13
2024-02-28T06:24:02.141Z,12.68
2024-02-28T06:26:29.593Z,13.57
2024-02-28T06:29:02.174Z,16.92
2024-02-28T06:31:32.305Z,13.98
2024-02-28T06:34:00.004Z,19.58
2024-02-28T06:36:27.681Z,16.75
2024-02-28T06:38:55.150Z,18.02
2024-02-28T06:41:23.889Z,16.77
2024-02-28T06:43:51.304Z,17.23
2024-02-28T06:46:19.034Z,15.07
2024-02-28T06:48:46.573Z,16.40
2024-02-28T06:51:16.535Z,16.20
2024-02-28T06:53:45.452Z,16.40
2024-02-28T06:56:12.982Z,16.42
2024-02-28T06:58:41.752Z,16.27
2024-02-28T07:01:09.257Z,16.33
2024-02-28T07:03:36.833Z,17.95
2024-02-28T07:06:04.717Z,16.83
2024-02-28T07:08:33.772Z,21.10
2024-02-28T07:11:01.347Z,15.52
2024-02-28T07:13:29.109Z,20.02
2024-02-28T07:15:58.382Z,19.35
2024-02-28T07:18:27.643Z,21.60
2024-02-28T07:20:55.085Z,20.08
2024-02-28T07:23:22.497Z,17.48
2024-02-28T07:25:49.973Z,21.23
2024-02-28T07:28:17.397Z,18.65
2024-02-28T07:30:46.069Z,20.15
2024-02-28T07:33:14.966Z,18.08
2024-02-28T07:35:48.865Z,15.40
2024-02-28T07:38:18.476Z,16.58
2024-02-28T07:40:46.018Z,17.52
2024-02-28T07:43:13.552Z,12.48
2024-02-28T07:45:41.319Z,14.05
2024-02-28T07:48:08.070Z,15.73
2024-02-28T07:50:36.929Z,18.13
2024-02-28T07:53:04.462Z,15.07
2024-02-28T07:55:31.897Z,14.18
2024-02-28T07:57:59.365Z,15.30
2024-02-28T08:00:27.376Z,11.45
2024-02-28T08:02:54.872Z,10.70
2024-02-28T08:05:22.316Z,9.35
2024-02-28T08:07:51.025Z,12.95
2024-02-28T08:10:18.488Z,13.00
2024-02-28T08:12:46.107Z,14.07
2024-02-28T08:15:13.667Z,15.38
2024-02-28T08:17:41.161Z,15.30
2024-02-28T08:20:10.085Z,14.18
2024-02-28T08:22:37.972Z,11.40
2024-02-28T08:25:07.354Z,15.15
2024-02-28T08:27:35.827Z,14.48
2024-02-28T08:30:05.044Z,16.48
2024-02-28T08:32:32.439Z,14.10
2024-02-28T08:34:59.935Z,14.65
2024-02-28T08:37:28.593Z,13.18
2024-02-28T08:39:58.831Z,15.82
2024-02-28T08:42:27.914Z,15.75
2024-02-28T08:44:55.718Z,13.27
2024-02-28T08:47:25.099Z,14.38
2024-02-28T08:49:52.976Z,14.85
2024-02-28T08:52:20.367Z,19.83
2024-02-28T08:54:48.323Z,15.63
2024-02-28T08:57:15.774Z,16.80
2024-02-28T08:59:44.528Z,13.13
2024-02-28T09:02:12.324Z,15.05
2024-02-28T09:04:39.828Z,14.15
2024-02-28T09:07:07.323Z,12.30
2024-02-28T09:09:38.896Z,14.80
2024-02-28T09:12:07.042Z,15.63
2024-02-28T09:14:34.480Z,12.93
2024-02-28T09:17:04.658Z,15.13
2024-02-28T09:19:32.800Z,13.02
2024-02-28T09:22:00.838Z,8.85
2024-02-28T09:24:28.869Z,14.45
2024-02-28T09:26:56.317Z,11.52
2024-02-28T09:29:23.741Z,11.23
2024-02-28T09:31:51.175Z,14.30
2024-02-28T09:34:19.905Z,12.60
2024-02-28T09:36:50.787Z,13.82
2024-02-28T09:39:18.778Z,13.05
2024-02-28T09:41:50.103Z,13.70
2024-02-28T09:44:18.616Z,15.88
2024-02-28T09:46:46.590Z,12.63
2024-02-28T09:49:16.804Z,13.68
2024-02-28T09:51:46.306Z,14.13
2024-02-28T09:54:13.994Z,12.73
2024-02-28T09:56:41.442Z,14.00
2024-02-28T09:59:09.567Z,19.80
2024-02-28T10:01:44.155Z,14.52
2024-02-28T10:04:13.892Z,15.50
2024-02-28T10:06:41.925Z,14.80
2024-02-28T10:09:11.842Z,16.63
2024-02-28T10:11:42.397Z,17.02
2024-02-28T10:14:10.662Z,15.07
2024-02-28T10:16:38.100Z,22.60
2024-02-28T10:19:07.492Z,20.42
2024-02-28T10:21:35.859Z,15.40
2024-02-28T10:24:05.468Z,19.65
2024-02-28T10:26:39.427Z,17.88
2024-02-28T10:29:10.004Z,21.58
2024-02-28T10:31:38.778Z,16.88
2024-02-28T10:34:06.565Z,23.27
2024-02-28T10:36:34.934Z,20.88
2024-02-28T10:39:02.870Z,15.40
2024-02-28T10:41:30.536Z,20.80
2024-02-28T10:43:59.377Z,20.63
2024-02-28T10:46:35.984Z,14.35
2024-02-28T10:49:05.278Z,18.15
2024-02-28T10:51:36.681Z,20.02
2024-02-28T10:54:12.304Z,18.75
2024-02-28T10:56:40.518Z,18.02
2024-02-28T10:59:11.899Z,17.08
2024-02-28T11:01:43.432Z,16.50
2024-02-28T11:04:12.233Z,17.92
2024-02-28T11:06:50.249Z,14.63
2024-02-28T11:09:23.513Z,14.02
2024-02-28T11:11:51.638Z,18.67
2024-02-28T11:14:22.639Z,18.65
2024-02-28T11:17:01.047Z,15.65
2024-02-28T11:19:30.635Z,14.15
2024-02-28T11:21:59.347Z,13.75
2024-02-28T11:24:31.845Z,13.63
2024-02-28T11:26:59.550Z,18.90
2024-02-28T11:29:30.171Z,12.77
2024-02-28T11:31:57.900Z,17.35
2024-02-28T11:34:25.468Z,12.43
2024-02-28T11:36:54.594Z,11.52
2024-02-28T11:39:25.837Z,14.68
2024-02-28T11:41:53.573Z,15.38
2024-02-28T11:44:21.550Z,17.02
2024-02-28T11:46:51.069Z,15.90
2024-02-28T11:49:20.253Z,17.10
2024-02-28T11:51:49.073Z,13.55
2024-02-28T11:54:16.599Z,16.15
2024-02-28T11:56:44.335Z,14.20
2024-02-28T11:59:14.590Z,12.95
2024-02-28T12:01:45.605Z,11.18
2024-02-28T12:04:15.344Z,13.90
2024-02-28T12:06:43.112Z,13.48
2024-02-28T12:09:10.913Z,13.55
2024-02-28T12:11:39.000Z,11.77
2024-02-28T12:14:09.964Z,16.45
2024-02-28T12:16:39.582Z,15.70
2024-02-28T12:19:09.892Z,16.88
2024-02-28T12:21:39.091Z,14.48
2024-02-28T12:24:09.949Z,14.45
2024-02-28T12:26:37.669Z,17.98
2024-02-28T12:29:05.103Z,15.02
2024-02-28T12:31:32.575Z,17.40
2024-02-28T12:34:00.447Z,15.70
2024-02-28T12:36:28.614Z,14.77
2024-02-28T12:38:57.363Z,16.80
2024-02-28T12:41:24.905Z,21.70
2024-02-28T12:43:52.472Z,17.15
2024-02-28T12:46:19.965Z,19.17
2024-02-28T12:48:48.587Z,17.02
2024-02-28T12:51:37.409Z,15.00
2024-02-28T12:54:06.833Z,16.40
2024-02-28T12:56:34.326Z,19.10
2024-02-28T12:59:01.778Z,15.45
2024-02-28T13:01:29.859Z,19.58
2024-02-28T13:03:57.736Z,15.88
2024-02-28T13:06:25.331Z,22.65
2024-02-28T13:08:53.493Z,16.70
2024-02-28T13:11:23.344Z,18.13
2024-02-28T13:13:52.472Z,15.88
2024-02-28T13:16:20.569Z,18.73
2024-02-28T13:18:48.259Z,18.95
2024-02-28T13:21:15.780Z,17.77
2024-02-28T13:23:43.229Z,13.48
2024-02-28T13:26:18.518Z,15.05
2024-02-28T13:28:50.238Z,18.42
2024-02-28T13:31:19.674Z,14.50
2024-02-28T13:33:49.480Z,16.63
2024-02-28T13:36:17.154Z,13.30
2024-02-28T13:38:45.273Z,14.98
2024-02-28T13:41:12.800Z,16.13
2024-02-28T13:43:40.316Z,18.40
2024-02-28T13:46:10.877Z,14.27
2024-02-28T13:48:38.424Z,17.77
2024-02-28T13:51:06.850Z,16.23
2024-02-28T13:53:34.311Z,12.63
2024-02-28T13:56:01.841Z,16.60
2024-02-28T13:58:36.397Z,17.77
2024-02-28T14:01:09.044Z,17.83
2024-02-28T14:03:36.689Z,17.85
2024-02-28T14:06:04.500Z,16.60
2024-02-28T14:08:35.664Z,14.18
2024-02-28T14:11:03.826Z,16.75
2024-02-28T14:13:31.292Z,16.55
2024-02-28T14:15:58.812Z,17.63
2024-02-28T14:18:27.597Z,17.52
2024-02-28T14:20:55.024Z,17.08
2024-02-28T14:23:22.483Z,14.63
2024-02-28T14:25:49.913Z,13.18
2024-02-28T14:28:19.150Z,19.65
2024-02-28T14:30:49.637Z,15.32
2024-02-28T14:33:17.169Z,15.63
2024-02-28T14:35:46.032Z,14.60
2024-02-28T14:38:13.474Z,15.50
2024-02-28T14:40:41.586Z,16.92
2024-02-28T14:43:09.562Z,18.20
2024-02-28T14:45:39.950Z,17.58
2024-02-28T14:48:09.413Z,17.90
2024-02-28T14:50:36.928Z,15.63
2024-02-28T14:53:06.010Z,14.80
2024-02-28T14:55:33.440Z,17.60
2024-02-28T14:58:01.476Z,15.15
2024-02-28T15:00:29.707Z,16.63
2024-02-28T15:02:57.407Z,20.50
2024-02-28T15:05:25.812Z,14.35
2024-02-28T15:07:53.296Z,15.20
2024-02-28T15:10:22.203Z,16.42
2024-02-28T15:12:49.791Z,16.13
2024-02-28T15:15:17.308Z,18.13
2024-02-28T15:17:45.857Z,16.45
2024-02-28T15:20:13.467Z,15.90
2024-02-28T15:22:40.906Z,15.25
2024-02-28T15:25:09.937Z,19.63
2024-02-28T15:27:38.795Z,16.40
2024-02-28T15:30:08.037Z,16.33
2024-02-28T15:32:35.547Z,15.32
2024-02-28T15:35:03.067Z,15.18
2024-02-28T15:37:30.567Z,16.73
2024-02-28T15:39:58.001Z,16.88
2024-02-28T15:42:25.756Z,15.13
2024-02-28T15:44:54.514Z,17.90
2024-02-28T15:47:23.104Z,17.80
2024-02-28T15:49:50.544Z,15.90
2024-02-28T15:52:18.054Z,19.55
2024-02-28T15:54:45.684Z,14.27
2024-02-28T15:57:13.106Z,18.10
2024-02-28T15:59:41.602Z,17.30
2024-02-28T16:02:12.891Z,15.07
2024-02-28T16:04:40.491Z,17.80
2024-02-28T16:07:08.683Z,17.58
2024-02-28T16:09:37.722Z,18.27
2024-02-28T16:12:05.751Z,15.55
2024-02-28T16:14:33.185Z,16.63
2024-02-28T16:17:00.586Z,18.88
2024-02-28T16:19:29.384Z,15.73
2024-02-28T16:21:57.037Z,19.45
2024-02-28T16:24:24.671Z,12.98
2024-02-28T16:26:52.233Z,19.27
2024-02-28T16:29:20.809Z,20.15
2024-02-28T16:31:50.376Z,19.15
2024-02-28T16:34:20.496Z,17.20
2024-02-28T16:36:49.924Z,18.55
2024-02-28T16:39:19.052Z,17.58
2024-02-28T16:41:46.700Z,18.08
2024-02-28T16:44:14.168Z,16.67
2024-02-28T16:46:41.654Z,19.80
2024-02-28T16:49:09.254Z,20.90
2024-02-28T16:51:38.923Z,20.52
2024-02-28T16:54:08.752Z,18.67
2024-02-28T16:56:36.159Z,21.63
2024-02-28T16:59:03.624Z,18.33
2024-02-28T17:01:31.203Z,18.08
2024-02-28T17:03:59.154Z,20.08
2024-02-28T17:06:26.684Z,18.90
2024-02-28T17:08:54.202Z,21.67
2024-02-28T17:11:23.069Z,18.52
2024-02-28T17:13:50.551Z,21.15
2024-02-28T17:16:18.633Z,20.92
2024-02-28T17:18:46.266Z,23.83
2024-02-28T17:21:13.840Z,21.73
2024-02-28T17:23:41.296Z,21.48
2024-02-28T17:26:08.800Z,19.60
2024-02-28T17:28:37.546Z,19.35
2024-02-28T17:31:05.428Z,21.33
2024-02-28T17:33:32.964Z,25.42
2024-02-28T17:36:00.441Z,21.83
2024-02-28T17:38:27.858Z,26.23
2024-02-28T17:40:55.409Z,26.05
2024-02-28T17:43:23.184Z,19.17
2024-02-28T17:45:54.601Z,24.42
2024-02-28T17:48:22.105Z,21.90
2024-02-28T17:50:51.010Z,19.88
2024-02-28T17:53:18.416Z,19.50
2024-02-28T17:55:45.811Z,19.08
2024-02-28T17:58:13.293Z,24.35
2024-02-28T18:00:40.807Z,23.17
2024-02-28T18:03:09.610Z,22.27
2024-02-28T18:05:37.028Z,21.98
2024-02-28T18:08:04.758Z,21.95
2024-02-28T18:10:32.204Z,19.95
2024-02-28T18:13:00.910Z,23.02
2024-02-28T18:15:28.791Z,21.63
2024-02-28T18:17:56.256Z,22.02
2024-02-28T18:20:25.151Z,22.17
2024-02-28T18:22:52.569Z,23.42
2024-02-28T18:25:20.309Z,17.58
2024-02-28T18:27:47.817Z,25.98
2024-02-28T18:30:16.419Z,23.02
2024-02-28T18:32:45.882Z,20.75
2024-02-28T18:35:15.555Z,21.67
2024-02-28T18:37:44.332Z,23.08
2024-02-28T18:40:16.534Z,25.70
2024-02-28T18:42:44.396Z,27.67
2024-02-28T18:45:12.377Z,23.55
2024-02-28T18:47:41.397Z,21.45
2024-02-28T18:50:09.645Z,24.33
2024-02-28T18:52:37.065Z,23.17
2024-02-28T18:55:06.748Z,22.23
2024-02-28T18:57:34.225Z,21.58
2024-02-28T19:00:01.672Z,22.23
2024-02-28T19:02:30.582Z,26.67
2024-02-28T19:04:57.998Z,23.00
2024-02-28T19:07:25.416Z,21.27
2024-02-28T19:09:53.682Z,28.38
2024-02-28T19:12:22.458Z,27.40
2024-02-28T19:14:49.875Z,25.10
2024-02-28T19:17:17.426Z,22.08
2024-02-28T19:19:44.888Z,25.45
2024-02-28T19:22:12.341Z,26.95
2024-02-28T19:24:39.889Z,22.88
2024-02-28T19:27:07.321Z,24.10
2024-02-28T19:29:37.579Z,21.83
2024-02-28T19:32:05.546Z,24.77
2024-02-28T19:34:32.954Z,21.42
2024-02-28T19:37:00.592Z,24.38
2024-02-28T19:39:28.059Z,24.67
2024-02-28T19:41:57.238Z,27.33
2024-02-28T19:44:24.727Z,19.33
2024-02-28T19:46:53.455Z,25.95
2024-02-28T19:49:20.891Z,21.80
2024-02-28T19:51:48.358Z,20.45
2024-02-28T19:54:16.042Z,24.75
2024-02-28T19:56:43.555Z,23.00
2024-02-28T19:59:11.016Z,26.23
2024-02-28T20:01:38.594Z,23.08
2024-02-28T20:04:07.538Z,23.70
2024-02-28T20:06:42.308Z,20.80
2024-02-28T20:09:09.859Z,22.17
2024-02-28T20:11:37.486Z,20.77
2024-02-28T20:14:04.998Z,26.50
2024-02-28T20:16:32.687Z,24.40
2024-02-28T20:19:00.208Z,21.73
2024-02-28T20:21:31.324Z,28.42
2024-02-28T20:23:58.949Z,24.80
2024-02-28T20:26:26.763Z,24.38
2024-02-28T20:28:54.853Z,24.90
2024-02-28T20:31:23.100Z,22.67
2024-02-28T20:33:51.054Z,20.90
2024-02-28T20:36:18.766Z,22.80
2024-02-28T20:38:48.610Z,21.15
2024-02-28T20:41:18.094Z,26.38
2024-02-28T20:43:45.554Z,29.63
2024-02-28T20:46:13.030Z,22.80
2024-02-28T20:48:42.195Z,23.13
2024-02-28T20:51:09.827Z,25.70
2024-02-28T20:53:39.671Z,19.88
2024-02-28T20:56:09.627Z,26.70
2024-02-28T20:58:37.500Z,23.85
2024-02-28T21:01:05.767Z,20.63
2024-02-28T21:03:33.422Z,23.38
2024-02-28T21:06:00.916Z,27.20
2024-02-28T21:08:28.329Z,24.88
2024-02-28T21:10:55.764Z,23.65
2024-02-28T21:13:24.550Z,26.90
2024-02-28T21:15:51.965Z,24.58
2024-02-28T21:18:19.485Z,19.83
2024-02-28T21:20:46.890Z,21.73
2024-02-28T21:23:14.371Z,23.50
2024-02-28T21:25:41.848Z,24.90
2024-02-28T21:28:09.373Z,23.83
2024-02-28T21:30:38.568Z,22.95
2024-02-28T21:33:06.720Z,22.90
2024-02-28T21:35:34.178Z,23.50
2024-02-28T21:38:01.568Z,23.77
2024-02-28T21:40:30.214Z,20.90
2024-02-28T21:42:57.899Z,17.95
2024-02-28T21:45:25.447Z,17.55
2024-02-28T21:47:56.246Z,21.30
2024-02-28T21:50:23.976Z,18.73
2024-02-28T21:52:52.423Z,20.80
2024-02-28T21:55:20.021Z,13.57
2024-02-28T21:57:47.480Z,15.45
2024-02-28T22:00:15.624Z,17.05
2024-02-28T22:02:43.026Z,19.05
2024-02-28T22:05:11.742Z,17.13
2024-02-28T22:07:39.144Z,16.65
2024-02-28T22:10:07.725Z,16.33
2024-02-28T22:12:37.669Z,16.58
2024-02-28T22:15:08.911Z,16.38
2024-02-28T22:17:36.386Z,18.27
2024-02-28T22:20:04.104Z,13.65
2024-02-28T22:22:32.827Z,18.83
2024-02-28T22:25:00.418Z,19.45
2024-02-28T22:27:27.992Z,14.63
2024-02-28T22:29:57.153Z,18.23
2024-02-28T22:32:25.937Z,16.73
2024-02-28T22:34:53.381Z,14.07
2024-02-28T22:37:20.798Z,19.17
2024-02-28T22:39:49.551Z,18.38
2024-02-28T22:42:16.994Z,18.80
2024-02-28T22:44:45.825Z,20.17
2024-02-28T22:47:13.432Z,14.52
2024-02-28T22:49:41.633Z,16.40
2024-02-28T22:52:09.262Z,13.93
2024-02-28T22:54:36.960Z,15.00
2024-02-28T22:57:06.326Z,15.00
2024-02-28T22:59:33.723Z,15.98
2024-02-28T23:02:01.315Z,15.90
2024-02-28T23:04:28.788Z,15.18
2024-02-28T23:06:56.811Z,17.58
2024-02-28T23:09:24.293Z,19.40
2024-02-28T23:11:51.685Z,15.35
2024-02-28T23:14:20.422Z,15.35
2024-02-28T23:16:47.828Z,17.92
2024-02-28T23:19:15.326Z,15.32
2024-02-28T23:21:44.246Z,19.33
2024-02-28T23:24:11.987Z,14.65
2024-02-28T23:26:39.374Z,17.08
2024-02-28T23:29:06.809Z,14.85
2024-02-28T23:31:35.731Z,19.77
2024-02-28T23:34:03.233Z,16.08
2024-02-28T23:36:30.794Z,17.02
2024-02-28T23:38:58.635Z,15.70
2024-02-28T23:41:26.049Z,17.92
2024-02-28T23:43:55.188Z,17.08
2024-02-28T23:46:24.824Z,15.23
2024-02-28T23:48:53.557Z,18.35
2024-02-28T23:51:20.982Z,17.48
2024-02-28T23:53:48.403Z,16.77
2024-02-28T23:56:15.808Z,12.75
2024-02-28T23:58:43.385Z,12.95
